createdAt,value
2022-11-01T00:02:11.965Z,15.80
2022-11-01T00:04:38.911Z,15.70
2022-11-01T00:07:06.222Z,15.70
2022-11-01T00:09:33.172Z,15.70
2022-11-01T00:12:00.184Z,15.70
2022-11-01T00:14:26.940Z,15.60
2022-11-01T00:16:53.994Z,15.60
2022-11-01T00:19:20.757Z,15.60
2022-11-01T00:21:47.552Z,15.50
2022-11-01T00:24:14.555Z,15.50
2022-11-01T00:26:41.385Z,15.40
2022-11-01T00:29:08.266Z,15.60
2022-11-01T00:31:35.133Z,15.60
2022-11-01T00:34:05.557Z,15.60
2022-11-01T00:36:33.140Z,15.60
2022-11-01T00:38:59.956Z,15.60
2022-11-01T00:41:26.796Z,15.60
2022-11-01T00:43:53.524Z,15.60
2022-11-01T00:46:20.241Z,15.60
2022-11-01T00:48:47.420Z,15.60
2022-11-01T00:51:14.222Z,15.50
2022-11-01T00:53:40.994Z,15.70
2022-11-01T00:56:08.600Z,15.40
2022-11-01T00:58:35.564Z,15.50
2022-11-01T01:01:02.778Z,15.50
2022-11-01T01:03:29.740Z,15.50
2022-11-01T01:05:56.557Z,15.50
2022-11-01T01:08:24.193Z,15.50
2022-11-01T01:10:51.039Z,15.40
2022-11-01T01:13:18.324Z,15.40
2022-11-01T01:15:45.542Z,15.40
2022-11-01T01:18:13.051Z,15.40
2022-11-01T01:20:40.095Z,15.40
2022-11-01T01:23:07.215Z,15.30
2022-11-01T01:25:33.916Z,15.40
2022-11-01T01:28:01.238Z,15.30
2022-11-01T01:30:28.142Z,15.40
2022-11-01T01:32:54.916Z,15.40
2022-11-01T01:35:21.640Z,15.40
2022-11-01T01:37:48.435Z,15.40
2022-11-01T01:40:15.226Z,15.50
2022-11-01T01:42:43.143Z,15.30
2022-11-01T01:45:09.871Z,15.30
2022-11-01T01:47:39.528Z,15.30
2022-11-01T01:50:11.076Z,15.20
2022-11-01T01:53:05.516Z,15.20
2022-11-01T01:55:42.110Z,15.20
2022-11-01T01:58:12.001Z,15.20
2022-11-01T02:00:39.378Z,15.70
2022-11-01T02:03:07.230Z,15.20
2022-11-01T02:05:54.542Z,15.20
2022-11-01T02:08:27.916Z,15.10
2022-11-01T02:10:59.532Z,15.10
2022-11-01T02:13:26.472Z,15.10
2022-11-01T02:16:21.878Z,15.10
2022-11-01T02:19:07.365Z,15.20
2022-11-01T02:22:01.840Z,15.10
2022-11-01T02:24:36.601Z,15.10
2022-11-01T02:27:18.397Z,15.10
2022-11-01T02:30:02.427Z,15.10
2022-11-01T02:32:35.630Z,15.10
2022-11-01T02:35:12.784Z,15.10
2022-11-01T02:38:15.887Z,15.10
2022-11-01T02:40:57.774Z,15.10
2022-11-01T02:43:47.948Z,15.10
2022-11-01T02:46:34.772Z,15.10
2022-11-01T02:49:02.629Z,15.20
2022-11-01T02:51:30.074Z,15.30
2022-11-01T02:54:01.593Z,15.20
2022-11-01T02:56:28.699Z,15.20
2022-11-01T02:58:56.418Z,15.20
2022-11-01T03:01:27.667Z,15.20
2022-11-01T03:03:56.707Z,15.10
2022-11-01T03:06:35.783Z,15.10
2022-11-01T03:09:06.350Z,15.20
2022-11-01T03:11:48.167Z,15.20
2022-11-01T03:14:32.963Z,15.10
2022-11-01T03:17:23.229Z,15.00
2022-11-01T03:19:59.490Z,15.00
2022-11-01T03:22:31.477Z,15.00
2022-11-01T03:24:58.210Z,14.90
2022-11-01T03:27:39.755Z,15.00
2022-11-01T03:30:14.326Z,15.00
2022-11-01T03:32:49.488Z,15.10
2022-11-01T03:35:23.287Z,15.00
2022-11-01T03:37:54.299Z,15.10
2022-11-01T03:40:23.787Z,15.10
2022-11-01T03:42:53.558Z,15.10
2022-11-01T03:47:56.200Z,15.20
2022-11-01T03:50:28.458Z,15.20
2022-11-01T03:52:55.925Z,15.20
2022-11-01T03:55:23.065Z,15.20
2022-11-01T03:57:55.370Z,15.10
2022-11-01T04:00:24.908Z,15.10
2022-11-01T04:02:54.677Z,15.10
2022-11-01T04:05:23.203Z,15.00
2022-11-01T04:07:51.611Z,15.20
2022-11-01T04:10:19.516Z,15.00
2022-11-01T04:12:48.419Z,15.10
2022-11-01T04:15:35.467Z,15.10
2022-11-01T04:18:23.459Z,15.10
2022-11-01T04:20:51.880Z,15.10
2022-11-01T04:23:19.016Z,15.20
2022-11-01T04:25:49.355Z,15.00
2022-11-01T04:28:19.081Z,15.10
2022-11-01T04:30:46.105Z,15.70
2022-11-01T04:33:12.848Z,15.20
2022-11-01T04:35:39.878Z,15.20
2022-11-01T04:38:06.985Z,15.10
2022-11-01T04:40:34.410Z,15.10
2022-11-01T04:43:01.251Z,15.10
2022-11-01T04:45:28.167Z,15.10
2022-11-01T04:48:05.084Z,16.10
2022-11-01T04:50:33.790Z,15.10
2022-11-01T04:53:01.608Z,15.20
2022-11-01T04:55:29.209Z,15.10
2022-11-01T04:57:56.285Z,15.20
2022-11-01T05:00:23.392Z,15.20
2022-11-01T05:02:50.593Z,15.20
2022-11-01T05:05:18.158Z,15.20
2022-11-01T05:07:45.728Z,15.30
2022-11-01T05:10:13.731Z,15.20
2022-11-01T05:12:41.002Z,15.20
2022-11-01T05:15:08.723Z,15.20
2022-11-01T05:17:35.772Z,15.10
2022-11-01T05:20:02.665Z,15.10
2022-11-01T05:22:29.416Z,15.20
2022-11-01T05:24:56.227Z,15.30
2022-11-01T05:27:23.045Z,15.40
2022-11-01T05:29:50.035Z,15.20
2022-11-01T05:32:17.182Z,15.30
2022-11-01T05:34:43.907Z,15.20
2022-11-01T05:37:11.075Z,15.20
2022-11-01T05:39:37.820Z,15.20
2022-11-01T05:42:04.566Z,15.60
2022-11-01T05:44:31.413Z,15.30
2022-11-01T05:46:58.180Z,15.40
2022-11-01T05:49:25.036Z,15.30
2022-11-01T05:51:51.810Z,15.40
2022-11-01T05:54:18.483Z,15.40
2022-11-01T05:56:45.260Z,15.40
2022-11-01T05:59:12.111Z,15.40
2022-11-01T06:01:39.082Z,15.40
2022-11-01T06:04:05.929Z,15.40
2022-11-01T06:06:33.573Z,15.30
2022-11-01T06:09:00.516Z,15.30
2022-11-01T06:11:27.599Z,15.30
2022-11-01T06:13:55.537Z,15.30
2022-11-01T06:16:22.944Z,15.30
2022-11-01T06:18:50.264Z,15.40
2022-11-01T06:21:17.106Z,15.50
2022-11-01T06:23:48.088Z,15.50
2022-11-01T06:26:14.886Z,15.60
2022-11-01T06:28:41.646Z,15.60
2022-11-01T06:31:08.694Z,15.80
2022-11-01T06:33:35.479Z,15.60
2022-11-01T06:36:03.120Z,15.60
2022-11-01T06:38:30.142Z,15.70
2022-11-01T06:40:56.975Z,15.70
2022-11-01T06:43:23.831Z,15.80
2022-11-01T06:45:51.128Z,15.80
2022-11-01T06:48:18.524Z,15.70
2022-11-01T06:50:45.965Z,15.80
2022-11-01T06:53:12.786Z,15.80
2022-11-01T06:55:39.499Z,15.80
2022-11-01T06:58:06.673Z,15.70
2022-11-01T07:00:33.615Z,15.80
2022-11-01T07:03:01.341Z,15.80
2022-11-01T07:05:31.531Z,15.90
2022-11-01T07:08:02.298Z,15.80
2022-11-01T07:10:29.550Z,15.90
2022-11-01T07:13:03.892Z,16.20
2022-11-01T07:15:31.417Z,16.10
2022-11-01T07:18:03.048Z,16.10
2022-11-01T07:20:31.815Z,16.10
2022-11-01T07:23:04.612Z,16.10
2022-11-01T07:25:32.853Z,16.20
2022-11-01T07:27:59.946Z,16.20
2022-11-01T07:30:27.283Z,16.30
2022-11-01T07:32:58.445Z,16.30
2022-11-01T07:35:26.655Z,16.40
2022-11-01T07:37:57.155Z,16.40
2022-11-01T07:40:27.709Z,16.50
2022-11-01T07:43:00.035Z,16.50
2022-11-01T07:45:29.332Z,16.60
2022-11-01T07:48:02.773Z,16.70
2022-11-01T07:50:31.512Z,16.60
2022-11-01T07:53:18.487Z,16.60
2022-11-01T07:55:46.560Z,16.60
2022-11-01T07:58:14.334Z,16.70
2022-11-01T08:00:42.806Z,16.70
2022-11-01T08:03:13.934Z,16.80
2022-11-01T08:05:41.718Z,16.80
2022-11-01T08:08:09.252Z,16.90
2022-11-01T08:10:37.293Z,17.00
2022-11-01T08:13:24.772Z,17.00
2022-11-01T08:15:53.103Z,17.00
2022-11-01T08:18:22.562Z,17.00
2022-11-01T08:20:50.012Z,17.00
2022-11-01T08:23:17.026Z,17.10
2022-11-01T08:25:44.862Z,17.10
2022-11-01T08:28:14.700Z,17.20
2022-11-01T08:30:43.266Z,17.30
2022-11-01T08:33:10.629Z,17.40
2022-11-01T08:35:37.565Z,17.60
2022-11-01T08:38:04.530Z,17.70
2022-11-01T08:40:32.304Z,17.70
2022-11-01T08:42:59.470Z,17.60
2022-11-01T08:45:27.404Z,17.70
2022-11-01T08:48:01.568Z,17.70
2022-11-01T08:50:29.180Z,17.70
2022-11-01T08:52:55.957Z,17.80
2022-11-01T08:55:23.360Z,17.70
2022-11-01T08:57:50.217Z,17.80
2022-11-01T09:00:17.768Z,17.80
2022-11-01T09:02:44.699Z,17.90
2022-11-01T09:05:11.648Z,17.90
2022-11-01T09:07:39.072Z,18.00
2022-11-01T09:10:06.604Z,18.00
2022-11-01T09:12:33.753Z,18.00
2022-11-01T09:15:01.364Z,18.10
2022-11-01T09:17:28.556Z,18.10
2022-11-01T09:19:55.311Z,18.00
2022-11-01T09:22:22.887Z,18.10
2022-11-01T09:24:49.706Z,18.10
2022-11-01T09:27:16.438Z,18.10
2022-11-01T09:29:45.429Z,18.20
2022-11-01T09:32:15.287Z,18.30
2022-11-01T09:34:41.993Z,18.30
2022-11-01T09:37:09.050Z,18.30
2022-11-01T09:39:35.816Z,18.30
2022-11-01T09:42:10.793Z,18.20
2022-11-01T09:44:45.130Z,18.30
2022-11-01T09:47:28.308Z,18.30
2022-11-01T09:50:19.379Z,18.30
2022-11-01T09:52:46.423Z,18.30
2022-11-01T09:55:15.483Z,18.30
2022-11-01T09:57:48.223Z,18.40
2022-11-01T10:00:21.888Z,18.40
2022-11-01T10:03:17.513Z,18.40
2022-11-01T10:05:51.345Z,18.40
2022-11-01T10:08:44.300Z,18.40
2022-11-01T10:11:23.131Z,18.40
2022-11-01T10:14:05.538Z,18.40
2022-11-01T10:16:38.957Z,18.40
2022-11-01T10:19:15.050Z,18.40
2022-11-01T10:21:56.477Z,18.40
2022-11-01T10:24:52.467Z,18.50
2022-11-01T10:27:45.079Z,18.50
2022-11-01T10:30:16.862Z,18.60
2022-11-01T10:32:53.045Z,18.60
2022-11-01T10:35:28.881Z,18.70
2022-11-01T10:38:30.182Z,18.80
2022-11-01T10:41:09.534Z,18.80
2022-11-01T10:43:42.079Z,18.80
2022-11-01T10:46:20.339Z,18.80
2022-11-01T10:48:54.506Z,18.80
2022-11-01T10:51:27.840Z,18.90
2022-11-01T10:54:02.023Z,18.90
2022-11-01T10:56:34.653Z,18.90
2022-11-01T10:59:24.571Z,18.90
2022-11-01T11:01:53.214Z,19.00
2022-11-01T11:04:23.098Z,19.00
2022-11-01T11:06:50.440Z,19.10
2022-11-01T11:09:35.795Z,19.10
2022-11-01T11:12:09.889Z,19.10
2022-11-01T11:14:37.596Z,19.10
2022-11-01T11:17:10.617Z,19.20
2022-11-01T11:19:40.031Z,19.20
2022-11-01T11:22:09.001Z,19.30
2022-11-01T11:24:38.877Z,19.20
2022-11-01T11:27:18.853Z,19.30
2022-11-01T11:29:49.665Z,19.40
2022-11-01T11:32:26.211Z,19.30
2022-11-01T11:35:01.818Z,19.30
2022-11-01T11:37:31.592Z,19.40
2022-11-01T11:40:14.929Z,19.30
2022-11-01T11:42:41.764Z,19.30
2022-11-01T11:45:27.982Z,19.30
2022-11-01T11:47:56.458Z,19.30
2022-11-01T11:50:32.284Z,19.30
2022-11-01T11:53:07.076Z,19.40
2022-11-01T11:55:43.845Z,19.40
2022-11-01T11:58:40.610Z,19.50
2022-11-01T12:01:12.100Z,19.40
2022-11-01T12:03:49.711Z,19.40
2022-11-01T12:06:28.490Z,19.50
2022-11-01T12:08:58.980Z,19.50
2022-11-01T12:11:37.840Z,19.60
2022-11-01T12:14:07.459Z,19.50
2022-11-01T12:16:41.354Z,19.50
2022-11-01T12:19:27.354Z,19.50
2022-11-01T12:21:56.045Z,19.50
2022-11-01T12:24:40.528Z,19.50
2022-11-01T12:27:14.572Z,19.50
2022-11-01T12:29:47.469Z,19.50
2022-11-01T12:32:20.810Z,19.50
2022-11-01T12:34:50.643Z,19.50
2022-11-01T12:38:03.421Z,19.50
2022-11-01T12:40:36.096Z,19.50
2022-11-01T12:43:12.348Z,19.40
2022-11-01T12:45:57.316Z,19.50
2022-11-01T12:48:46.974Z,19.50
2022-11-01T12:51:36.619Z,19.50
2022-11-01T12:54:22.836Z,19.60
2022-11-01T12:56:49.713Z,19.50
2022-11-01T12:59:24.437Z,19.60
2022-11-01T13:02:22.230Z,19.60
2022-11-01T13:05:13.013Z,19.60
2022-11-01T13:07:43.594Z,19.60
2022-11-01T13:10:32.124Z,19.60
2022-11-01T13:12:58.831Z,19.60
2022-11-01T13:15:31.656Z,19.60
2022-11-01T13:18:33.573Z,19.60
2022-11-01T13:21:21.858Z,19.60
2022-11-01T13:24:07.548Z,19.60
2022-11-01T13:26:40.986Z,19.70
2022-11-01T13:29:28.261Z,19.80
2022-11-01T13:32:13.184Z,19.80
2022-11-01T13:34:46.621Z,19.70
2022-11-01T13:37:24.376Z,19.80
2022-11-01T13:40:12.436Z,19.80
2022-11-01T13:42:46.539Z,19.80
2022-11-01T13:45:13.278Z,19.80
2022-11-01T13:48:09.334Z,19.80
2022-11-01T13:50:54.620Z,19.80
2022-11-01T13:53:32.451Z,19.70
2022-11-01T13:56:13.052Z,19.70
2022-11-01T13:58:40.604Z,19.70
2022-11-01T14:01:26.382Z,19.60
2022-11-01T14:04:14.943Z,19.50
2022-11-01T14:06:43.346Z,19.50
2022-11-01T14:09:28.205Z,19.50
2022-11-01T14:11:56.520Z,19.50
2022-11-01T14:14:32.613Z,19.50
2022-11-01T14:17:24.300Z,19.40
2022-11-01T14:19:58.601Z,19.50
2022-11-01T14:22:32.739Z,19.40
2022-11-01T14:25:23.786Z,19.40
2022-11-01T14:28:11.770Z,19.50
2022-11-01T14:30:42.302Z,19.50
2022-11-01T14:33:14.672Z,19.40
2022-11-01T14:35:45.655Z,19.40
2022-11-01T14:38:18.514Z,19.40
2022-11-01T14:40:55.631Z,19.50
2022-11-01T14:43:35.599Z,19.40
2022-11-01T14:46:13.387Z,19.40
2022-11-01T14:49:07.343Z,19.40
2022-11-01T14:51:51.446Z,19.20
2022-11-01T14:54:27.837Z,19.20
2022-11-01T14:56:56.814Z,19.20
2022-11-01T14:59:32.821Z,19.20
2022-11-01T15:02:03.233Z,19.20
2022-11-01T15:04:38.251Z,19.20
2022-11-01T15:07:17.030Z,19.30
2022-11-01T15:10:02.301Z,19.20
2022-11-01T15:12:33.385Z,19.20
2022-11-01T15:15:01.275Z,19.20
2022-11-01T15:17:32.760Z,19.20
2022-11-01T15:20:01.564Z,19.20
2022-11-01T15:22:33.039Z,19.10
2022-11-01T15:25:02.559Z,19.10
2022-11-01T15:27:41.326Z,19.10
2022-11-01T15:30:36.816Z,19.10
2022-11-01T15:33:26.018Z,19.00
2022-11-01T15:35:59.409Z,18.90
2022-11-01T15:38:27.724Z,18.90
2022-11-01T15:40:54.817Z,18.90
2022-11-01T15:43:27.472Z,18.90
2022-11-01T15:45:57.685Z,18.80
2022-11-01T15:48:28.862Z,18.80
2022-11-01T15:51:09.078Z,18.80
2022-11-01T15:53:38.864Z,18.70
2022-11-01T15:56:12.859Z,18.70
2022-11-01T15:58:53.828Z,18.60
2022-11-01T16:01:22.849Z,18.60
2022-11-01T16:04:05.109Z,18.60
2022-11-01T16:06:45.767Z,18.60
2022-11-01T16:09:32.252Z,18.50
2022-11-01T16:12:02.584Z,18.50
2022-11-01T16:14:37.285Z,18.50
2022-11-01T16:17:23.894Z,18.60
2022-11-01T16:19:51.644Z,18.50
2022-11-01T16:22:32.459Z,18.40
2022-11-01T16:25:11.659Z,18.30
2022-11-01T16:27:58.702Z,18.20
2022-11-01T16:30:37.934Z,18.20
2022-11-01T16:33:29.664Z,18.20
2022-11-01T16:35:59.090Z,19.60
2022-11-01T16:38:38.234Z,18.20
2022-11-01T16:41:26.366Z,18.30
2022-11-01T16:43:59.236Z,18.20
2022-11-01T16:46:29.276Z,18.10
2022-11-01T16:48:58.859Z,18.00
2022-11-01T16:51:28.493Z,18.00
2022-11-01T16:53:56.779Z,17.90
2022-11-01T16:56:42.272Z,17.90
2022-11-01T16:59:40.904Z,17.80
2022-11-01T17:02:21.105Z,17.80
2022-11-01T17:04:51.712Z,17.70
2022-11-01T17:07:18.775Z,17.70
2022-11-01T17:09:46.137Z,17.70
2022-11-01T17:12:12.948Z,17.70
2022-11-01T17:17:15.442Z,17.60
2022-11-01T17:19:46.102Z,17.80
2022-11-01T17:22:19.493Z,17.60
2022-11-01T17:24:46.936Z,17.50
2022-11-01T17:27:15.470Z,17.50
2022-11-01T17:29:43.195Z,17.40
2022-11-01T17:32:11.526Z,17.40
2022-11-01T17:34:39.067Z,17.30
2022-11-01T17:37:06.409Z,17.40
2022-11-01T17:39:33.468Z,17.30
2022-11-01T17:42:00.270Z,17.30
2022-11-01T17:44:27.685Z,17.30
2022-11-01T17:46:54.427Z,17.20
2022-11-01T17:49:23.680Z,17.20
2022-11-01T17:51:54.765Z,17.20
2022-11-01T17:54:23.190Z,17.20
2022-11-01T17:56:51.295Z,17.10
2022-11-01T17:59:18.519Z,17.10
2022-11-01T18:01:45.745Z,17.10
2022-11-01T18:04:12.710Z,17.00
2022-11-01T18:06:40.926Z,17.00
2022-11-01T18:09:24.804Z,16.90
2022-11-01T18:12:00.580Z,16.80
2022-11-01T18:14:45.584Z,16.80
2022-11-01T18:17:27.353Z,16.80
2022-11-01T18:20:11.525Z,16.70
2022-11-01T18:22:44.545Z,16.70
2022-11-01T18:25:30.310Z,16.70
2022-11-01T18:28:00.611Z,16.70
2022-11-01T18:30:28.058Z,16.70
2022-11-01T18:33:20.145Z,16.70
2022-11-01T18:35:56.672Z,16.60
2022-11-01T18:38:39.750Z,16.50
2022-11-01T18:41:13.156Z,16.50
2022-11-01T18:43:40.282Z,16.50
2022-11-01T18:46:24.913Z,16.70
2022-11-01T18:49:00.567Z,16.40
2022-11-01T18:51:34.004Z,16.40
2022-11-01T18:54:09.838Z,16.30
2022-11-01T18:56:51.140Z,16.30
2022-11-01T18:59:29.446Z,16.20
2022-11-01T19:02:11.739Z,16.20
2022-11-01T19:04:41.109Z,16.20
2022-11-01T19:07:14.049Z,16.10
2022-11-01T19:09:44.762Z,16.20
2022-11-01T19:12:15.989Z,16.10
2022-11-01T19:14:45.255Z,16.00
2022-11-01T19:17:37.266Z,16.10
2022-11-01T19:20:19.827Z,16.00
2022-11-01T19:22:46.972Z,15.90
2022-11-01T19:25:21.256Z,15.90
2022-11-01T19:27:50.604Z,15.90
2022-11-01T19:30:29.082Z,15.90
2022-11-01T19:33:07.179Z,15.90
2022-11-01T19:35:34.195Z,15.90
2022-11-01T19:38:01.208Z,15.90
2022-11-01T19:40:32.678Z,15.90
2022-11-01T19:43:11.535Z,15.90
2022-11-01T19:45:45.694Z,15.80
2022-11-01T19:48:15.201Z,15.80
2022-11-01T19:50:43.762Z,15.80
2022-11-01T19:53:22.235Z,15.70
2022-11-01T19:55:53.096Z,15.70
2022-11-01T19:58:38.957Z,15.70
2022-11-01T20:01:16.937Z,15.70
2022-11-01T20:03:58.128Z,15.60
2022-11-01T20:06:31.124Z,15.60
2022-11-01T20:09:15.729Z,15.50
2022-11-01T20:11:42.562Z,15.50
2022-11-01T20:14:09.726Z,15.50
2022-11-01T20:16:36.806Z,15.40
2022-11-01T20:19:03.805Z,15.40
2022-11-01T20:21:30.802Z,15.40
2022-11-01T20:23:58.976Z,15.40
2022-11-01T20:26:26.309Z,15.30
2022-11-01T20:28:53.125Z,15.30
2022-11-01T20:31:19.988Z,15.30
2022-11-01T20:33:46.781Z,15.20
2022-11-01T20:36:13.913Z,15.20
2022-11-01T20:38:40.921Z,15.20
2022-11-01T20:41:07.978Z,15.20
2022-11-01T20:43:35.118Z,15.20
2022-11-01T20:46:02.185Z,15.20
2022-11-01T20:48:28.967Z,15.10
2022-11-01T20:50:55.721Z,13.90
2022-11-01T20:53:26.001Z,15.20
2022-11-01T20:55:56.360Z,15.20
2022-11-01T20:58:23.177Z,15.20
2022-11-01T21:00:51.589Z,15.10
2022-11-01T21:03:20.676Z,15.20
2022-11-01T21:05:49.169Z,16.40
2022-11-01T21:08:26.602Z,15.20
2022-11-01T21:10:59.584Z,15.10
2022-11-01T21:13:34.101Z,15.00
2022-11-01T21:16:02.493Z,14.90
2022-11-01T21:18:42.119Z,14.90
2022-11-01T21:21:15.048Z,14.90
2022-11-01T21:23:44.130Z,14.90
2022-11-01T21:26:19.075Z,14.90
2022-11-01T21:28:49.152Z,14.80
2022-11-01T21:31:26.060Z,14.80
2022-11-01T21:34:19.610Z,14.80
2022-11-01T21:36:50.786Z,14.80
2022-11-01T21:39:26.961Z,14.80
2022-11-01T21:42:22.555Z,14.60
2022-11-01T21:44:49.385Z,14.60
2022-11-01T21:47:24.807Z,14.50
2022-11-01T21:49:51.649Z,14.60
2022-11-01T21:52:21.457Z,14.70
2022-11-01T21:54:49.431Z,14.60
2022-11-01T21:57:16.777Z,14.60
2022-11-01T21:59:44.176Z,14.70
2022-11-01T22:02:12.567Z,14.60
2022-11-01T22:04:39.517Z,14.60
2022-11-01T22:07:07.698Z,14.50
2022-11-01T22:09:34.991Z,14.50
2022-11-01T22:12:02.998Z,14.50
2022-11-01T22:14:29.852Z,14.40
2022-11-01T22:16:56.883Z,14.40
2022-11-01T22:19:24.110Z,15.50
2022-11-01T22:21:50.850Z,14.40
2022-11-01T22:24:17.630Z,14.30
2022-11-01T22:26:44.475Z,14.30
2022-11-01T22:29:11.408Z,14.30
2022-11-01T22:31:38.236Z,14.30
2022-11-01T22:34:05.069Z,14.30
2022-11-01T22:36:35.528Z,14.30
2022-11-01T22:39:11.867Z,14.20
2022-11-01T22:41:40.802Z,14.20
2022-11-01T22:44:16.406Z,14.20
2022-11-01T22:46:53.590Z,14.10
2022-11-01T22:49:34.570Z,14.20
2022-11-01T22:52:19.353Z,14.10
2022-11-01T22:54:52.045Z,14.10
2022-11-01T22:57:24.085Z,13.90
2022-11-01T22:59:53.567Z,14.00
2022-11-01T23:02:31.903Z,14.00
2022-11-01T23:05:23.829Z,14.00
2022-11-01T23:07:59.761Z,13.90
2022-11-01T23:10:32.775Z,13.90
2022-11-01T23:13:30.324Z,13.80
2022-11-01T23:16:11.575Z,14.10
2022-11-01T23:18:40.315Z,13.90
2022-11-01T23:21:09.056Z,13.70
2022-11-01T23:23:40.495Z,13.70
2022-11-01T23:26:07.700Z,13.60
2022-11-01T23:28:35.469Z,14.40
2022-11-01T23:31:05.741Z,13.80
2022-11-01T23:33:42.869Z,13.70
2022-11-01T23:36:13.743Z,13.60
2022-11-01T23:38:51.064Z,13.50
2022-11-01T23:41:25.561Z,13.70
2022-11-01T23:43:56.377Z,13.60
2022-11-01T23:46:25.415Z,13.60
2022-11-01T23:49:01.821Z,13.60
2022-11-01T23:51:31.073Z,13.50
2022-11-01T23:53:58.816Z,13.50
2022-11-01T23:56:25.768Z,13.50
2022-11-01T23:59:00.776Z,13.50
